Time;durP1;ratioP1;P1;durP2;ratioP2;P2;SDS_P1;SDS_P2;PMS_P1;PMS_P2;Temp;Humidity;BMP_temperature;BMP_pressure;BME280_temperature;BME280_humidity;BME280_pressure;Samples;Min_cycle;Max_cycle;Signal;HPM_P1;HPM_P2
2021/06/14 00:01:02;;;;;;;17.30;4.72;;;;;;;12.12;67.46;101859.63;1577294;90;21221;-89
2021/06/14 00:03:30;;;;;;;13.40;4.75;;;;;;;12.13;67.53;101865.39;1579290;90;21559;-90
2021/06/14 00:06:00;;;;;;;10.72;4.45;;;;;;;12.12;67.59;101867.54;1579422;90;21189;-91
2021/06/14 00:08:26;;;;;;;13.43;5.12;;;;;;;12.11;67.64;101871.03;1576933;90;22786;-87
2021/06/14 00:10:56;;;;;;;11.78;4.80;;;;;;;12.09;67.60;101870.48;1558785;90;21194;-87
2021/06/14 00:13:25;;;;;;;9.50;4.60;;;;;;;12.05;67.71;101858.95;1556826;90;21152;-87
2021/06/14 00:15:52;;;;;;;15.08;5.42;;;;;;;12.03;67.83;101852.28;1678244;84;21114;-87
2021/06/14 00:18:20;;;;;;;11.93;4.72;;;;;;;12.02;67.89;101849.16;1713436;81;21754;-86
2021/06/14 00:20:56;;;;;;;12.33;4.47;;;;;;;12.00;67.91;101842.92;1741659;81;21799;-87
2021/06/14 00:23:27;;;;;;;10.72;4.47;;;;;;;11.96;67.95;101842.34;1703758;84;21118;-86
2021/06/14 00:25:54;;;;;;;15.00;5.12;;;;;;;11.94;68.06;101845.34;1764531;81;21035;-89
2021/06/14 00:28:21;;;;;;;15.08;5.33;;;;;;;11.93;68.17;101843.54;1764939;81;21144;-90
2021/06/14 00:30:51;;;;;;;12.95;5.10;;;;;;;11.91;68.20;101839.95;1741833;81;20933;-89
2021/06/14 00:33:21;;;;;;;13.88;4.90;;;;;;;11.94;68.33;101841.82;1708754;83;22167;-90
2021/06/14 00:35:48;;;;;;;11.68;4.92;;;;;;;11.92;68.37;101844.40;1701989;83;21602;-90
2021/06/14 00:38:24;;;;;;;14.85;4.87;;;;;;;11.92;68.44;101845.72;1764891;81;21537;-92
2021/06/14 00:40:56;;;;;;;11.48;4.78;;;;;;;11.92;68.49;101840.84;1740378;81;21039;-90
2021/06/14 00:43:23;;;;;;;11.60;5.03;;;;;;;11.90;68.71;101846.08;1676985;84;21047;-89
2021/06/14 00:45:56;;;;;;;10.28;5.30;;;;;;;11.93;68.75;101839.58;1703503;84;22250;-89
2021/06/14 00:48:21;;;;;;;12.75;5.22;;;;;;;11.93;68.77;101841.33;1703214;84;21046;-90
2021/06/14 00:51:01;;;;;;;10.70;4.95;;;;;;;11.93;68.73;101841.33;1703614;84;21660;-90
2021/06/14 00:53:39;;;;;;;14.05;5.65;;;;;;;11.94;68.72;101844.46;1691498;84;21041;-90
2021/06/14 00:56:48;;;;;;;11.20;5.47;;;;;;;11.92;68.70;101843.47;1699818;84;21007;-90
2021/06/14 00:58:49;;;;;;;10.45;4.70;;;;;;;11.92;68.76;101843.47;1678618;84;21621;-90
2021/06/14 01:01:38;;;;;;;15.18;5.22;;;;;;;11.86;68.77;101841.47;1699822;84;21040;-90
2021/06/14 01:04:05;;;;;;;11.50;4.97;;;;;;;11.83;68.89;101840.06;1704126;83;21050;-89
2021/06/14 01:06:32;;;;;;;13.03;5.10;;;;;;;11.80;68.96;101838.19;1700075;84;21129;-88
2021/06/14 01:16:53;;;;;;;8.33;4.60;;;;;;;11.71;69.05;101835.20;1699785;84;21048;-93
2021/06/14 01:23:53;;;;;;;11.08;5.10;;;;;;;11.66;69.23;101832.84;1632948;87;21090;-91
2021/06/14 01:26:24;;;;;;;10.50;5.35;;;;;;;11.55;69.42;101817.91;1610517;88;21627;-92
2021/06/14 01:28:55;;;;;;;13.70;4.85;;;;;;;11.61;69.54;101833.07;1624778;87;21897;-88
2021/06/14 01:31:26;;;;;;;12.70;4.78;;;;;;;11.59;69.56;101832.12;1618536;88;21372;-89
2021/06/14 01:33:54;;;;;;;12.68;5.17;;;;;;;11.58;69.78;101827.27;1631063;87;21157;-88
2021/06/14 01:36:25;;;;;;;10.43;5.20;;;;;;;11.62;69.83;101833.13;1617488;87;21974;-90
2021/06/14 01:38:54;;;;;;;15.03;5.70;;;;;;;11.63;69.93;101832.27;1626578;88;21114;-90
2021/06/14 01:41:24;;;;;;;12.03;5.30;;;;;;;11.64;69.94;101828.81;1612443;87;22631;-91
2021/06/14 01:43:53;;;;;;;9.13;4.80;;;;;;;11.63;70.06;101834.02;1613160;88;21043;-90
2021/06/14 01:46:23;;;;;;;11.25;5.22;;;;;;;11.63;70.11;101837.55;1609950;87;21106;-90
2021/06/14 01:48:50;;;;;;;17.50;6.47;;;;;;;11.64;70.10;101835.84;1646718;86;21060;-90
2021/06/14 01:51:21;;;;;;;13.15;5.70;;;;;;;11.63;70.20;101840.19;1638551;86;21066;-90
2021/06/14 01:54:02;;;;;;;12.47;6.17;;;;;;;11.65;70.38;101842.89;1637148;86;21775;-90
2021/06/14 01:56:17;;;;;;;15.75;5.80;;;;;;;11.66;70.43;101845.59;1613814;87;40068;-89
2021/06/14 01:58:44;;;;;;;11.22;5.97;;;;;;;11.69;70.55;101843.48;1670093;82;21062;-88
2021/06/14 02:01:13;;;;;;;11.18;5.33;;;;;;;11.70;70.42;101845.30;1758930;81;21549;-88
2021/06/14 02:03:40;;;;;;;11.78;5.75;;;;;;;11.70;70.52;101841.33;1732349;82;21555;-90
2021/06/14 02:06:08;;;;;;;15.13;5.58;;;;;;;11.71;70.60;101844.43;1731945;82;21019;-90
2021/06/14 02:08:38;;;;;;;13.85;5.97;;;;;;;11.74;70.64;101841.03;1739835;81;21051;-89
2021/06/14 02:11:05;;;;;;;12.75;5.72;;;;;;;11.76;70.78;101834.08;1764679;81;21356;-90
2021/06/14 02:13:32;;;;;;;11.05;5.17;;;;;;;11.77;70.72;101839.80;1764879;81;21004;-89
2021/06/14 02:15:59;;;;;;;13.28;5.95;;;;;;;11.79;70.79;101836.41;1764641;81;21059;-89
2021/06/14 02:18:35;;;;;;;14.47;6.15;;;;;;;11.83;70.84;101838.31;1745772;81;22533;-90
2021/06/14 02:21:02;;;;;;;11.97;5.60;;;;;;;11.87;70.81;101837.58;1747272;81;21102;-90
2021/06/14 02:23:30;;;;;;;10.53;5.35;;;;;;;11.91;70.76;101835.98;1756861;81;21030;-87
2021/06/14 02:25:56;;;;;;;11.60;5.33;;;;;;;11.94;70.84;101838.75;1761666;81;21680;-88
2021/06/14 02:28:23;;;;;;;16.67;6.65;;;;;;;11.96;70.75;101840.14;1762412;81;21036;-89
2021/06/14 02:30:50;;;;;;;13.25;5.62;;;;;;;11.98;70.77;101835.81;1764262;81;21179;-88
2021/06/14 02:33:17;;;;;;;12.73;5.75;;;;;;;12.05;70.78;101840.47;1763683;81;21040;-89
2021/06/14 02:35:44;;;;;;;11.68;6.45;;;;;;;12.09;70.78;101834.45;1763661;81;21067;-89
2021/06/14 02:38:13;;;;;;;14.80;5.78;;;;;;;12.16;70.78;101835.16;1759631;81;21137;-91
2021/06/14 02:40:52;;;;;;;11.20;5.75;;;;;;;12.20;70.69;101843.66;1759882;80;21056;-91
2021/06/14 02:43:21;;;;;;;12.30;5.60;;;;;;;12.21;70.58;101843.23;1740651;81;21726;-90
2021/06/14 02:45:54;;;;;;;12.80;6.03;;;;;;;12.24;70.66;101844.23;1740463;81;20945;-91
2021/06/14 02:48:24;;;;;;;11.55;6.37;;;;;;;12.28;70.61;101849.64;1765264;81;21121;-90
2021/06/14 02:50:54;;;;;;;10.68;5.65;;;;;;;12.30;70.53;101848.84;1759731;81;21048;-91
2021/06/14 02:53:23;;;;;;;17.70;5.65;;;;;;;12.31;70.53;101849.30;1764829;81;21079;-90
2021/06/14 02:56:12;;;;;;;11.68;5.22;;;;;;;12.36;70.65;101849.48;1764299;81;21920;-90
2021/06/14 02:58:42;;;;;;;16.65;6.00;;;;;;;12.43;70.64;101848.42;1763033;80;21089;-92
2021/06/14 03:01:11;;;;;;;10.82;5.28;;;;;;;12.53;70.62;101846.10;1764350;81;21148;-91
2021/06/14 03:03:41;;;;;;;13.10;5.58;;;;;;;12.61;70.55;101851.22;1762164;81;21206;-92
2021/06/14 03:06:15;;;;;;;14.03;5.87;;;;;;;12.68;70.61;101849.27;1762190;81;21486;-91
2021/06/14 03:08:44;;;;;;;;;;;;;;;12.79;70.57;101853.16;1765794;81;22394;-90
2021/06/14 03:11:10;;;;;;;13.85;5.75;;;;;;;12.89;70.42;101848.19;1759906;80;20796;-90
2021/06/14 03:13:36;;;;;;;13.55;5.65;;;;;;;12.98;70.33;101853.34;1761384;81;21075;-91
2021/06/14 03:16:04;;;;;;;9.68;5.47;;;;;;;13.11;70.21;101847.16;1740424;81;21059;-89
2021/06/14 03:18:31;;;;;;;13.35;5.87;;;;;;;13.18;70.06;101851.80;1759848;81;21082;-88
2021/06/14 03:21:00;;;;;;;16.45;5.95;;;;;;;13.27;70.00;101856.05;1740343;81;21762;-88
2021/06/14 03:23:28;;;;;;;10.18;6.10;;;;;;;13.41;70.03;101854.75;1750535;81;22643;-89
2021/06/14 03:25:55;;;;;;;11.88;5.40;;;;;;;13.63;70.05;101854.10;1759616;81;21150;-89
2021/06/14 03:28:24;;;;;;;9.83;5.65;;;;;;;13.89;70.11;101849.58;1762999;81;21019;-90
2021/06/14 03:30:57;;;;;;;10.93;5.92;;;;;;;14.93;72.42;101844.88;1759614;81;21020;-90
2021/06/14 03:33:22;;;;;;;14.80;5.30;;;;;;;16.97;71.86;101840.67;1764815;81;22610;-92
2021/06/14 03:35:52;;;;;;;15.03;5.62;;;;;;;18.55;70.13;101839.16;1768670;80;21101;-94
2021/06/14 03:38:21;;;;;;;13.43;5.00;;;;;;;20.02;67.36;101833.48;1744857;81;21047;-90
2021/06/14 03:40:47;;;;;;;12.15;4.78;;;;;;;20.09;63.54;101836.63;1761125;81;21532;-89
2021/06/14 03:43:14;;;;;;;9.98;5.58;;;;;;;19.63;62.02;101841.28;1764350;81;21066;-89
2021/06/14 03:45:44;;;;;;;9.85;5.58;;;;;;;19.30;61.85;101838.01;1769109;81;21771;-91
2021/06/14 03:48:29;;;;;;;;;;;;;;;;;;;;;
2021/06/14 03:51:57;;;;;;;11.03;4.85;;;;;;;21.08;63.27;101834.52;1737524;81;21034;-92
2021/06/14 03:54:20;;;;;;;7.50;3.67;;;;;;;23.58;61.06;101834.34;1756518;81;21059;-93
2021/06/14 03:56:59;;;;;;;11.05;4.53;;;;;;;25.99;58.42;101829.48;1734879;81;21063;-93
2021/06/14 03:59:21;;;;;;;11.40;4.50;;;;;;;27.73;55.95;101831.34;1754832;79;21140;-82
2021/06/14 04:01:48;;;;;;;8.60;4.30;;;;;;;29.24;52.98;101825.17;1765818;81;21446;-82
2021/06/14 04:06:44;;;;;;;8.88;4.20;;;;;;;31.11;48.35;101828.65;1760334;81;21078;-82
2021/06/14 04:09:11;;;;;;;11.85;5.67;;;;;;;31.95;46.69;101826.16;1759658;80;21647;-82
2021/06/14 04:11:38;;;;;;;12.95;4.62;;;;;;;32.78;44.76;101830.75;1760669;81;21832;-83
2021/06/14 04:14:05;;;;;;;8.08;4.08;;;;;;;33.24;43.26;101823.37;1760475;81;21064;-82
2021/06/14 04:16:31;;;;;;;7.62;4.37;;;;;;;33.62;41.46;101819.94;1763705;81;21104;-83
2021/06/14 04:18:58;;;;;;;9.03;4.70;;;;;;;34.05;40.08;101828.48;1764990;81;21222;-83
2021/06/14 04:21:25;;;;;;;9.25;4.47;;;;;;;34.15;38.92;101822.49;1762084;81;21146;-84
2021/06/14 04:23:52;;;;;;;11.22;3.87;;;;;;;34.59;38.19;101826.73;1767643;80;21810;-85
2021/06/14 04:26:19;;;;;;;7.35;3.90;;;;;;;34.94;36.86;101826.50;1769652;80;21034;-89
2021/06/14 04:28:45;;;;;;;6.72;4.30;;;;;;;35.27;35.57;101824.08;1775141;80;21121;-88
2021/06/14 04:31:12;;;;;;;11.33;4.97;;;;;;;35.45;35.15;101827.48;1766080;80;21497;-84
2021/06/14 04:33:42;;;;;;;7.33;4.70;;;;;;;35.99;34.09;101826.81;1764938;80;21175;-87
2021/06/14 04:36:12;;;;;;;8.38;4.05;;;;;;;36.36;33.80;101825.78;1764677;81;21177;-90
2021/06/14 04:38:41;;;;;;;8.85;4.53;;;;;;;36.73;32.58;101821.91;1732628;81;21081;-88
2021/06/14 04:41:08;;;;;;;8.13;4.28;;;;;;;37.22;32.41;101821.73;1764560;81;21174;-83
2021/06/14 04:43:35;;;;;;;6.12;3.92;;;;;;;37.90;31.55;101828.75;1743118;80;21583;-87
2021/06/14 04:46:02;;;;;;;6.03;3.95;;;;;;;38.65;30.56;101833.22;1766092;80;21066;-82
2021/06/14 04:48:29;;;;;;;12.47;4.55;;;;;;;39.10;30.07;101831.16;1763334;80;21789;-81
2021/06/14 04:50:56;;;;;;;11.18;4.20;;;;;;;39.76;29.06;101836.39;1764177;80;21071;-82
2021/06/14 04:53:22;;;;;;;6.40;3.60;;;;;;;39.95;28.50;101830.26;1764517;81;21105;-81
2021/06/14 04:55:49;;;;;;;8.10;4.17;;;;;;;40.12;27.16;101823.84;1765810;80;21445;-81
2021/06/14 04:58:16;;;;;;;13.70;4.40;;;;;;;39.89;26.71;101823.88;1764447;80;21140;-81
2021/06/14 05:00:43;;;;;;;7.12;3.75;;;;;;;39.81;26.63;101827.72;1764034;80;21754;-82
2021/06/14 05:03:10;;;;;;;6.47;4.50;;;;;;;40.18;26.29;101824.19;1764179;80;21505;-82
2021/06/14 05:05:39;;;;;;;7.35;3.77;;;;;;;40.40;25.27;101815.52;1764448;81;21059;-82
2021/06/14 05:08:12;;;;;;;7.70;4.58;;;;;;;40.23;25.22;101819.67;1764040;80;22153;-82
2021/06/14 05:10:39;;;;;;;6.58;5.03;;;;;;;40.38;24.75;101823.92;1764009;81;21051;-83
2021/06/14 05:13:09;;;;;;;9.50;3.85;;;;;;;40.41;24.38;101823.67;1765789;80;21752;-82
2021/06/14 05:15:36;;;;;;;9.33;4.15;;;;;;;40.47;24.25;101830.55;1763168;80;21096;-82
2021/06/14 05:18:06;;;;;;;6.65;3.52;;;;;;;40.44;23.70;101837.69;1763401;81;21561;-82
2021/06/14 05:20:33;;;;;;;8.53;4.00;;;;;;;40.15;23.36;101832.73;1764672;80;21150;-82
2021/06/14 05:23:03;;;;;;;6.53;3.83;;;;;;;39.85;23.16;101834.73;1773654;80;21073;-82
2021/06/14 05:25:31;;;;;;;8.58;3.98;;;;;;;40.08;23.28;101833.38;1769147;80;21974;-82
2021/06/14 05:27:58;;;;;;;6.92;3.92;;;;;;;40.12;23.04;101824.71;1748188;81;21085;-82
2021/06/14 05:30:25;;;;;;;6.10;3.65;;;;;;;40.30;22.67;101829.19;1712404;83;21557;-81
2021/06/14 05:32:54;;;;;;;5.60;3.37;;;;;;;40.25;22.67;101830.08;1712439;83;21512;-82
2021/06/14 05:35:20;;;;;;;9.90;4.08;;;;;;;40.30;22.56;101835.19;1704870;83;21140;-82
2021/06/14 05:37:49;;;;;;;7.37;3.80;;;;;;;40.82;22.58;101837.67;1690754;83;21753;-82
2021/06/14 05:40:17;;;;;;;10.88;5.83;;;;;;;41.23;22.29;101843.38;1708412;84;21078;-82
2021/06/14 05:42:43;;;;;;;9.90;3.62;;;;;;;40.67;21.14;101843.98;1770677;81;21049;-82
2021/06/14 05:45:11;;;;;;;15.05;4.45;;;;;;;38.22;21.06;101836.50;1765361;80;21047;-82
2021/06/14 05:47:38;;;;;;;6.67;3.95;;;;;;;35.20;22.06;101839.11;1774074;80;21029;-81
2021/06/14 05:50:06;;;;;;;8.83;4.72;;;;;;;32.79;23.54;101834.35;1774211;80;21744;-82
2021/06/14 05:52:32;;;;;;;6.62;3.98;;;;;;;31.01;24.90;101836.34;1767977;80;21109;-82
2021/06/14 05:54:59;;;;;;;12.13;4.10;;;;;;;29.57;26.28;101830.75;1738665;81;21072;-81
2021/06/14 05:57:26;;;;;;;7.92;4.10;;;;;;;28.38;27.47;101835.27;1701874;84;21587;-81
2021/06/14 05:59:53;;;;;;;9.10;4.75;;;;;;;27.18;28.51;101832.91;1743097;82;21101;-82
2021/06/14 06:02:20;;;;;;;10.32;5.08;;;;;;;26.06;29.57;101825.73;1741888;82;21750;-81
2021/06/14 06:04:46;;;;;;;12.18;4.70;;;;;;;24.98;30.87;101829.63;1741448;82;21101;-82
2021/06/14 06:07:13;;;;;;;9.53;4.55;;;;;;;24.06;32.12;101831.94;1736485;81;21171;-81
2021/06/14 06:09:40;;;;;;;8.85;4.12;;;;;;;23.44;33.30;101831.36;1740536;82;21034;-81
2021/06/14 06:12:11;;;;;;;10.85;4.12;;;;;;;22.92;34.02;101834.54;1735117;82;21687;-81
2021/06/14 06:14:37;;;;;;;8.63;3.75;;;;;;;22.51;34.66;101831.28;1743684;82;22477;-82
2021/06/14 06:17:04;;;;;;;9.05;4.47;;;;;;;22.13;35.33;101839.09;1713348;83;21010;-82
2021/06/14 06:19:31;;;;;;;12.10;4.03;;;;;;;21.83;35.93;101841.91;1704563;83;21125;-82
2021/06/14 06:21:57;;;;;;;11.38;3.90;;;;;;;21.58;36.45;101842.46;1709911;83;21123;-82
2021/06/14 06:24:24;;;;;;;12.47;4.67;;;;;;;21.44;37.25;101843.40;1703004;84;21140;-82
2021/06/14 06:26:55;;;;;;;9.93;3.60;;;;;;;21.36;37.61;101842.50;1679588;84;21600;-82
2021/06/14 06:29:21;;;;;;;10.85;3.95;;;;;;;21.29;38.25;101841.61;1700493;84;21087;-82
2021/06/14 06:31:48;;;;;;;22.37;6.25;;;;;;;21.23;38.35;101842.05;1702063;84;21007;-82
2021/06/14 06:34:15;;;;;;;27.30;6.85;;;;;;;21.15;38.64;101854.12;1697596;84;21589;-82
2021/06/14 06:36:42;;;;;;;31.57;8.50;;;;;;;21.05;38.92;101854.58;1700333;84;21055;-82
2021/06/14 06:39:08;;;;;;;12.53;4.53;;;;;;;20.86;39.03;101852.81;1701002;82;21810;-82
2021/06/14 06:41:35;;;;;;;8.95;3.62;;;;;;;20.75;39.43;101856.81;1705527;84;21062;-82
2021/06/14 06:44:02;;;;;;;11.20;3.85;;;;;;;20.69;39.69;101852.36;1704475;84;21003;-82
2021/06/14 06:46:29;;;;;;;6.92;3.72;;;;;;;20.65;39.94;101857.72;1702160;84;21081;-82
2021/06/14 06:48:56;;;;;;;11.63;3.50;;;;;;;20.64;40.14;101864.83;1705391;84;21065;-82
2021/06/14 06:51:22;;;;;;;19.42;4.08;;;;;;;20.59;40.09;101857.23;1698844;84;21783;-82
2021/06/14 06:53:49;;;;;;;23.15;6.03;;;;;;;20.52;40.32;101858.99;1702483;84;21115;-82
2021/06/14 06:56:18;;;;;;;18.92;5.03;;;;;;;20.53;40.43;101851.85;1694137;83;21102;-82
2021/06/14 06:58:45;;;;;;;15.58;5.05;;;;;;;20.51;40.63;101846.95;1720611;82;21091;-82
2021/06/14 07:01:11;;;;;;;12.33;4.42;;;;;;;20.45;40.64;101850.96;1745469;81;21573;-82
2021/06/14 07:03:41;;;;;;;10.50;4.87;;;;;;;20.45;41.22;101846.49;1750382;81;22456;-82
2021/06/14 07:06:09;;;;;;;11.80;4.47;;;;;;;20.45;41.54;101844.28;1698621;83;21111;-82
2021/06/14 07:08:36;;;;;;;8.18;3.85;;;;;;;20.34;41.80;101844.25;1761472;80;21062;-82
2021/06/14 07:11:03;;;;;;;10.10;4.05;;;;;;;20.29;42.06;101852.27;1765938;80;21085;-82
2021/06/14 07:13:30;;;;;;;11.22;4.10;;;;;;;20.33;42.18;101855.39;1765546;81;21070;-82
2021/06/14 07:15:56;;;;;;;10.78;5.17;;;;;;;20.37;42.46;101855.84;1761066;80;21776;-82
2021/06/14 07:18:23;;;;;;;9.18;4.72;;;;;;;20.42;42.59;101857.63;1756757;81;21031;-82
2021/06/14 07:20:50;;;;;;;20.10;4.75;;;;;;;20.47;42.66;101866.11;1756746;81;21542;-82
2021/06/14 07:23:17;;;;;;;11.05;4.17;;;;;;;20.48;42.83;101858.55;1761930;81;21078;-82
2021/06/14 07:25:44;;;;;;;5.78;3.60;;;;;;;20.53;42.82;101857.20;1759093;81;21066;-82
2021/06/14 07:28:11;;;;;;;9.28;3.67;;;;;;;20.61;42.88;101857.24;1748392;81;21742;-82
2021/06/14 07:30:38;;;;;;;20.02;5.25;;;;;;;20.66;43.04;101860.37;1753158;81;21011;-82
2021/06/14 07:33:04;;;;;;;8.68;3.55;;;;;;;20.72;42.70;101858.14;1739287;81;21058;-82
2021/06/14 07:35:31;;;;;;;10.58;4.42;;;;;;;20.80;42.04;101855.47;1751578;81;21059;-82
2021/06/14 07:38:00;;;;;;;10.60;4.60;;;;;;;20.74;41.58;101850.59;1763367;81;21071;-82
2021/06/14 07:40:28;;;;;;;10.93;3.85;;;;;;;20.68;41.73;101852.35;1758348;81;22530;-82
2021/06/14 07:42:54;;;;;;;7.03;3.30;;;;;;;20.58;41.94;101850.09;1744855;81;21063;-82
2021/06/14 07:45:24;;;;;;;5.65;3.30;;;;;;;20.54;41.73;101847.84;1717386;81;21631;-82
2021/06/14 07:47:50;;;;;;;7.22;4.15;;;;;;;20.44;41.62;101847.83;1754414;81;20980;-82
2021/06/14 07:50:17;;;;;;;8.43;3.85;;;;;;;20.39;41.92;101851.84;1747795;81;21062;-82
2021/06/14 07:52:44;;;;;;;22.17;8.18;;;;;;;20.41;42.32;101842.48;1733780;81;21731;-82
2021/06/14 07:55:13;;;;;;;10.10;5.10;;;;;;;20.44;42.57;101843.81;1758135;81;21007;-82
2021/06/14 07:57:40;;;;;;;7.22;3.80;;;;;;;20.50;42.83;101841.17;1746603;81;21146;-83
2021/06/14 08:00:08;;;;;;;22.07;3.75;;;;;;;20.58;43.08;101835.38;1745956;81;21628;-82
2021/06/14 08:02:36;;;;;;;18.70;4.40;;;;;;;20.66;42.96;101840.30;1752585;81;21071;-82
2021/06/14 08:05:06;;;;;;;11.12;4.47;;;;;;;20.75;42.47;101838.09;1750545;81;21055;-82
2021/06/14 08:07:35;;;;;;;9.48;3.30;;;;;;;20.83;42.11;101836.30;1752070;81;21028;-82
2021/06/14 08:10:05;;;;;;;5.47;2.90;;;;;;;20.90;41.79;101840.76;1764550;81;21710;-82
2021/06/14 08:12:33;;;;;;;8.45;3.65;;;;;;;20.96;41.83;101837.19;1764231;81;21074;-82
2021/06/14 08:15:03;;;;;;;4.25;2.67;;;;;;;21.04;41.76;101838.09;1764414;81;21074;-82
2021/06/14 08:17:31;;;;;;;7.17;3.10;;;;;;;21.09;41.58;101834.94;1763765;81;21839;-82
2021/06/14 08:20:04;;;;;;;7.75;3.60;;;;;;;21.13;41.56;101839.84;1764278;81;21864;-82
2021/06/14 08:22:40;;;;;;;8.08;3.15;;;;;;;21.14;41.50;101847.88;1763179;80;21102;-82
2021/06/14 08:25:09;;;;;;;9.00;3.10;;;;;;;21.14;41.57;101843.86;1759808;81;21067;-82
2021/06/14 08:27:42;;;;;;;9.65;4.72;;;;;;;21.16;41.74;101840.73;1759926;81;21093;-82
2021/06/14 08:30:15;;;;;;;7.28;3.42;;;;;;;21.23;41.73;101847.41;1767177;81;22043;-82
2021/06/14 08:32:42;;;;;;;7.08;2.92;;;;;;;21.29;41.54;101843.41;1761114;81;21109;-82
2021/06/14 08:35:17;;;;;;;7.00;3.20;;;;;;;21.37;41.51;101849.63;1761170;81;21067;-82
2021/06/14 08:37:45;;;;;;;5.10;3.12;;;;;;;21.44;41.30;101843.40;1758800;81;21585;-82
2021/06/14 08:40:16;;;;;;;5.12;2.33;;;;;;;21.48;41.04;101853.20;1759210;81;21094;-82
2021/06/14 08:42:43;;;;;;;4.47;2.80;;;;;;;21.51;41.14;101849.61;1744495;80;21774;-82
2021/06/14 08:45:13;;;;;;;8.08;3.08;;;;;;;21.58;41.39;101855.86;1760715;81;21521;-82
2021/06/14 08:47:45;;;;;;;5.83;2.80;;;;;;;21.68;41.31;101848.25;1748841;81;21077;-82
2021/06/14 08:50:13;;;;;;;6.28;2.77;;;;;;;21.77;41.50;101851.33;1762315;81;21071;-82
2021/06/14 08:52:40;;;;;;;8.25;3.00;;;;;;;21.82;41.17;101846.39;1764220;81;21063;-82
2021/06/14 08:55:09;;;;;;;8.50;3.17;;;;;;;21.86;41.06;101840.11;1762833;80;21725;-82
2021/06/14 08:57:36;;;;;;;8.90;2.75;;;;;;;21.92;41.02;101837.85;1756376;81;22152;-81
2021/06/14 09:00:06;;;;;;;6.80;3.58;;;;;;;21.97;41.31;101837.84;1757704;81;21067;-81
2021/06/14 09:02:33;;;;;;;4.55;2.58;;;;;;;22.05;41.82;101836.00;1765624;80;21077;-81
2021/06/14 09:05:01;;;;;;;9.38;3.22;;;;;;;22.17;41.81;101833.69;1761750;81;21061;-82
2021/06/14 09:07:29;;;;;;;5.20;2.67;;;;;;;22.25;41.40;101829.20;1763052;81;22457;-82
2021/06/14 09:09:56;;;;;;;9.25;3.27;;;;;;;22.26;41.18;101830.99;1761252;81;21111;-81
2021/06/14 09:12:23;;;;;;;5.30;3.30;;;;;;;22.27;41.09;101827.42;1762360;81;21071;-82
2021/06/14 09:14:50;;;;;;;8.08;4.10;;;;;;;22.31;41.45;101829.19;1761860;81;21012;-82
2021/06/14 09:17:17;;;;;;;6.65;3.27;;;;;;;22.37;41.46;101827.79;1759987;81;21051;-82
2021/06/14 09:19:51;;;;;;;6.17;3.15;;;;;;;22.40;41.63;101829.13;1764347;81;21730;-81
2021/06/14 09:22:24;;;;;;;7.65;2.90;;;;;;;22.45;41.21;101827.31;1763101;80;21081;-82
2021/06/14 09:25:09;;;;;;;6.53;2.30;;;;;;;22.47;40.63;101818.80;1763464;81;21054;-82
2021/06/14 09:27:42;;;;;;;4.62;2.90;;;;;;;22.45;40.52;101820.59;1734638;81;21039;-82
2021/06/14 09:30:33;;;;;;;6.12;2.52;;;;;;;22.47;40.75;101813.42;1751231;81;22140;-82
2021/06/14 09:33:07;;;;;;;8.45;3.15;;;;;;;22.49;40.49;101813.42;1738727;81;21756;-83
2021/06/14 09:35:40;;;;;;;8.48;3.12;;;;;;;22.49;40.54;101808.94;1733772;82;21556;-82
2021/06/14 09:38:15;;;;;;;4.58;2.80;;;;;;;22.57;40.78;101813.36;1734035;82;21008;-82
2021/06/14 09:40:57;;;;;;;5.92;2.77;;;;;;;22.66;40.69;101814.17;1741762;81;21229;-82
2021/06/14 09:43:31;;;;;;;11.20;2.80;;;;;;;22.76;40.64;101808.27;1746594;81;21081;-81
2021/06/14 09:46:00;;;;;;;8.63;5.60;;;;;;;22.86;40.26;101814.44;1745407;81;21773;-82
2021/06/14 09:48:29;;;;;;;19.25;3.85;;;;;;;22.88;39.90;101811.28;1746986;81;21047;-82
2021/06/14 09:51:00;;;;;;;10.82;3.40;;;;;;;22.88;39.64;101803.23;1751733;81;20949;-82
2021/06/14 09:53:34;;;;;;;7.95;2.80;;;;;;;22.86;39.86;101807.30;1745327;81;21676;-81
2021/06/14 09:55:56;;;;;;;3.92;2.45;;;;;;;22.87;40.25;101805.03;1734181;81;21455;-82
2021/06/14 09:58:25;;;;;;;5.37;2.52;;;;;;;22.93;40.10;101794.69;1743325;81;22525;-82
2021/06/14 10:00:57;;;;;;;7.37;2.70;;;;;;;23.01;40.04;101791.49;1744503;81;21086;-82
2021/06/14 10:03:29;;;;;;;6.75;3.20;;;;;;;23.08;40.11;101787.84;1743934;81;21086;-82
2021/06/14 10:05:56;;;;;;;8.03;3.02;;;;;;;23.14;39.99;101792.72;1749953;81;21024;-82
2021/06/14 10:08:32;;;;;;;5.60;2.65;;;;;;;23.17;39.70;101788.21;1763268;81;21153;-82
2021/06/14 10:11:04;;;;;;;3.55;2.42;;;;;;;23.23;39.70;101785.45;1760523;81;21755;-82
2021/06/14 10:13:31;;;;;;;9.95;3.85;;;;;;;23.25;39.12;101789.00;1745509;81;21042;-82
2021/06/14 10:16:09;;;;;;;9.05;2.52;;;;;;;23.31;39.27;101787.16;1734095;81;20946;-82
2021/06/14 10:18:42;;;;;;;3.58;2.42;;;;;;;23.40;39.17;101787.94;1739566;81;21067;-82
2021/06/14 10:21:27;;;;;;;7.87;3.52;;;;;;;23.53;39.09;101777.94;1762282;81;21091;-82
2021/06/14 10:23:55;;;;;;;3.60;2.98;;;;;;;23.61;38.89;101784.12;1750280;80;21821;-82
2021/06/14 10:26:23;;;;;;;6.72;2.58;;;;;;;23.63;38.03;101786.34;1742382;82;21551;-82
2021/06/14 10:28:50;;;;;;;5.45;2.70;;;;;;;23.58;37.37;101778.78;1759512;80;21070;-82
2021/06/14 10:31:20;;;;;;;4.87;2.20;;;;;;;23.56;37.28;101787.32;1750267;80;21231;-82
2021/06/14 10:33:49;;;;;;;12.75;4.12;;;;;;;23.56;37.08;101772.53;1713281;83;21089;-82
2021/06/14 10:36:16;;;;;;;5.50;2.45;;;;;;;23.60;37.01;101774.27;1709926;83;21808;-82
2021/06/14 10:38:44;;;;;;;4.90;2.33;;;;;;;23.59;36.51;101767.56;1708107;83;21127;-82
2021/06/14 10:41:11;;;;;;;5.35;2.15;;;;;;;23.57;36.56;101768.92;1718687;83;21022;-82
2021/06/14 10:43:38;;;;;;;6.90;2.37;;;;;;;23.59;36.30;101760.38;1720798;83;21244;-82
2021/06/14 10:46:06;;;;;;;9.13;7.83;;;;;;;23.59;36.43;101757.70;1720797;83;21093;-82
2021/06/14 10:48:34;;;;;;;5.50;2.83;;;;;;;23.66;37.00;101755.83;1671407;83;22595;-82
2021/06/14 10:51:04;;;;;;;3.58;2.35;;;;;;;23.72;36.62;101754.86;1721150;83;21564;-82
2021/06/14 10:53:31;;;;;;;8.70;2.52;;;;;;;23.77;36.80;101755.69;1721041;83;21521;-82
2021/06/14 10:56:16;;;;;;;7.22;3.20;;;;;;;23.81;36.36;101747.58;1720843;83;21018;-82
2021/06/14 10:58:32;;;;;;;6.75;2.80;;;;;;;23.83;36.37;101747.10;1712230;83;21088;-82
2021/06/14 11:01:17;;;;;;;4.10;2.62;;;;;;;23.83;36.19;101747.10;1721171;83;21783;-82
2021/06/14 11:03:47;;;;;;;4.87;2.20;;;;;;;23.84;35.77;101744.86;1720863;83;21099;-82
2021/06/14 11:06:22;;;;;;;4.35;2.37;;;;;;;23.83;35.68;101744.41;1721181;83;21350;-82
2021/06/14 11:09:08;;;;;;;3.42;1.82;;;;;;;23.85;35.69;101745.73;1721107;83;21414;-82
2021/06/14 11:11:55;;;;;;;5.95;2.72;;;;;;;23.86;35.60;101744.84;1721162;83;21033;-82
2021/06/14 11:14:40;;;;;;;9.93;3.10;;;;;;;23.88;35.46;101740.80;1721332;83;21748;-82
2021/06/14 11:17:25;;;;;;;8.23;3.33;;;;;;;23.89;35.24;101738.05;1721078;83;21113;-82
2021/06/14 11:20:02;;;;;;;8.70;2.50;;;;;;;23.79;35.13;101720.30;1718394;83;21414;-82
2021/06/14 11:22:50;;;;;;;4.35;2.90;;;;;;;23.93;35.30;101723.69;1720893;83;21185;-82
2021/06/14 11:25:30;;;;;;;18.85;3.17;;;;;;;23.93;35.30;101723.69;1716225;83;21085;-82
2021/06/14 11:27:58;;;;;;;5.25;2.77;;;;;;;23.95;35.03;101725.89;1716032;83;21369;-82
2021/06/14 11:30:31;;;;;;;11.03;3.15;;;;;;;23.88;35.05;101697.31;1715864;83;21757;-81
2021/06/14 11:32:58;;;;;;;5.87;2.87;;;;;;;24.00;34.53;101725.34;1714690;83;21065;-82
2021/06/14 11:35:27;;;;;;;9.85;1.87;;;;;;;23.98;34.32;101720.44;1715481;83;21085;-82
2021/06/14 11:37:54;;;;;;;10.10;2.45;;;;;;;23.97;34.58;101721.80;1716296;83;21081;-82
2021/06/14 11:40:31;;;;;;;9.88;2.40;;;;;;;23.99;34.30;101719.55;1716228;83;21795;-82
2021/06/14 11:43:00;;;;;;;7.42;2.05;;;;;;;24.01;33.95;101714.15;1716025;83;21120;-82
2021/06/14 11:45:37;;;;;;;5.17;2.17;;;;;;;24.01;33.69;101711.45;1716151;83;21121;-82
2021/06/14 11:48:07;;;;;;;2.70;2.10;;;;;;;24.01;33.28;101704.73;1690245;83;21034;-83